KINL/INL METAR and TAF weather

Enter ICAO airport designator
Station Type Date Time Source
KINL METAR 2021/08/04 18:54 UTC NOAA

KINL 041854Z AUTO 25009G16KT 8SM CLR 28/14 A2994 RMK AO2 VIS 2 RWY 31 SLP136 T02830139


Station Type Date Time Source
KINL Decoded METAR 2021/08/04 18:54 UTC NOAA

FALLS INTERNATIONAL AIRPORT , MN, United States (KINL) 48-34N 093-24W 360M
Aug 04, 2021 - 02:54 PM EDT / 2021.08.04 1854 UTC
Wind: from the WSW (250 degrees) at 10 MPH (9 KT) gusting to 18 MPH (16 KT):0
Visibility: 8 mile(s):0
Sky conditions: clear
Temperature: 82.9 F (28.3 C)
Dew Point: 57.0 F (13.9 C)
Relative Humidity: 41%
Pressure (altimeter): 29.94 in. Hg (1013 hPa)
ob: KINL 041854Z AUTO 25009G16KT 8SM CLR 28/14 A2994 RMK AO2 VIS 2 RWY 31 SLP136 T02830139
cycle: 19

Station Type Date Time Source
KINL TAF 2021/08/04 18:39 UTC NOAA

TAF KINL 041735Z 0418/0518 23010G17KT 6SM FU BKN250
FM050100 21007G15KT P6SM VCSH BKN100
FM050500 20005KT 6SM -SHRA VCTS SCT050CB BKN090

Example: see airport list